sensor_id;sensor_type;location;lat;lon;timestamp;P1;durP1;ratioP1;P2;durP2;ratioP2
4547;SDS011;2286;51.570;7.090;2023-08-24T00:01:52;8.33;;;7.53;;
4547;SDS011;2286;51.570;7.090;2023-08-24T00:04:18;13.60;;;8.30;;
4547;SDS011;2286;51.570;7.090;2023-08-24T00:06:45;11.93;;;8.00;;
4547;SDS011;2286;51.570;7.090;2023-08-24T00:09:13;9.30;;;8.43;;
4547;SDS011;2286;51.570;7.090;2023-08-24T00:11:41;7.70;;;6.90;;
4547;SDS011;2286;51.570;7.090;2023-08-24T00:14:08;7.93;;;7.27;;
4547;SDS011;2286;51.570;7.090;2023-08-24T00:16:35;11.07;;;7.67;;
4547;SDS011;2286;51.570;7.090;2023-08-24T00:19:02;13.20;;;8.10;;
4547;SDS011;2286;51.570;7.090;2023-08-24T00:21:29;8.70;;;7.90;;
4547;SDS011;2286;51.570;7.090;2023-08-24T00:23:56;8.73;;;7.40;;
4547;SDS011;2286;51.570;7.090;2023-08-24T00:26:26;10.67;;;7.33;;
4547;SDS011;2286;51.570;7.090;2023-08-24T00:28:52;8.03;;;7.40;;
4547;SDS011;2286;51.570;7.090;2023-08-24T00:31:19;8.67;;;7.87;;
4547;SDS011;2286;51.570;7.090;2023-08-24T00:33:46;9.90;;;8.90;;
4547;SDS011;2286;51.570;7.090;2023-08-24T00:36:15;9.53;;;8.60;;
4547;SDS011;2286;51.570;7.090;2023-08-24T00:38:43;12.53;;;9.30;;
4547;SDS011;2286;51.570;7.090;2023-08-24T00:41:10;10.57;;;8.63;;
4547;SDS011;2286;51.570;7.090;2023-08-24T00:43:39;10.13;;;8.47;;
4547;SDS011;2286;51.570;7.090;2023-08-24T00:46:06;8.77;;;7.90;;
4547;SDS011;2286;51.570;7.090;2023-08-24T00:48:33;10.10;;;9.20;;
4547;SDS011;2286;51.570;7.090;2023-08-24T00:51:00;11.27;;;8.63;;
4547;SDS011;2286;51.570;7.090;2023-08-24T00:53:28;10.60;;;9.27;;
4547;SDS011;2286;51.570;7.090;2023-08-24T00:55:56;10.43;;;9.20;;
4547;SDS011;2286;51.570;7.090;2023-08-24T00:58:24;10.67;;;8.50;;
4547;SDS011;2286;51.570;7.090;2023-08-24T01:00:53;9.10;;;8.30;;
4547;SDS011;2286;51.570;7.090;2023-08-24T01:03:22;10.90;;;9.70;;
4547;SDS011;2286;51.570;7.090;2023-08-24T01:05:49;9.87;;;8.97;;
4547;SDS011;2286;51.570;7.090;2023-08-24T01:08:16;9.60;;;8.67;;
4547;SDS011;2286;51.570;7.090;2023-08-24T01:10:44;13.03;;;9.60;;
4547;SDS011;2286;51.570;7.090;2023-08-24T01:13:16;10.37;;;9.10;;
4547;SDS011;2286;51.570;7.090;2023-08-24T01:15:51;10.50;;;8.70;;
4547;SDS011;2286;51.570;7.090;2023-08-24T01:18:26;10.30;;;9.23;;
4547;SDS011;2286;51.570;7.090;2023-08-24T01:20:56;12.07;;;9.00;;
4547;SDS011;2286;51.570;7.090;2023-08-24T01:23:29;9.80;;;8.97;;
4547;SDS011;2286;51.570;7.090;2023-08-24T01:26:08;8.50;;;7.80;;
4547;SDS011;2286;51.570;7.090;2023-08-24T01:28:37;9.30;;;8.40;;
4547;SDS011;2286;51.570;7.090;2023-08-24T01:31:05;9.50;;;8.57;;
4547;SDS011;2286;51.570;7.090;2023-08-24T01:33:32;9.63;;;8.83;;
4547;SDS011;2286;51.570;7.090;2023-08-24T01:35:59;10.63;;;9.00;;
4547;SDS011;2286;51.570;7.090;2023-08-24T01:38:26;9.60;;;8.60;;
4547;SDS011;2286;51.570;7.090;2023-08-24T01:44:17;9.80;;;8.90;;
4547;SDS011;2286;51.570;7.090;2023-08-24T01:46:47;9.83;;;8.97;;
4547;SDS011;2286;51.570;7.090;2023-08-24T01:49:16;9.10;;;8.30;;
4547;SDS011;2286;51.570;7.090;2023-08-24T01:51:44;10.43;;;9.43;;
4547;SDS011;2286;51.570;7.090;2023-08-24T01:54:12;11.53;;;9.40;;
4547;SDS011;2286;51.570;7.090;2023-08-24T01:56:39;9.57;;;8.60;;
4547;SDS011;2286;51.570;7.090;2023-08-24T01:59:06;9.40;;;8.50;;
4547;SDS011;2286;51.570;7.090;2023-08-24T02:01:34;9.83;;;9.07;;
4547;SDS011;2286;51.570;7.090;2023-08-24T02:04:01;12.40;;;8.77;;
4547;SDS011;2286;51.570;7.090;2023-08-24T02:06:28;9.33;;;8.63;;
4547;SDS011;2286;51.570;7.090;2023-08-24T02:08:55;10.57;;;9.57;;
4547;SDS011;2286;51.570;7.090;2023-08-24T02:11:22;10.20;;;9.30;;
4547;SDS011;2286;51.570;7.090;2023-08-24T02:13:49;11.57;;;10.10;;
4547;SDS011;2286;51.570;7.090;2023-08-24T02:16:16;10.00;;;9.03;;
4547;SDS011;2286;51.570;7.090;2023-08-24T02:18:44;10.60;;;8.70;;
4547;SDS011;2286;51.570;7.090;2023-08-24T02:21:11;11.30;;;10.20;;
4547;SDS011;2286;51.570;7.090;2023-08-24T02:23:39;10.83;;;9.83;;
4547;SDS011;2286;51.570;7.090;2023-08-24T02:26:06;9.60;;;8.77;;
4547;SDS011;2286;51.570;7.090;2023-08-24T02:28:36;9.23;;;8.43;;
4547;SDS011;2286;51.570;7.090;2023-08-24T02:31:03;9.67;;;8.67;;
4547;SDS011;2286;51.570;7.090;2023-08-24T02:33:31;10.17;;;9.20;;
4547;SDS011;2286;51.570;7.090;2023-08-24T02:36:00;12.13;;;9.13;;
4547;SDS011;2286;51.570;7.090;2023-08-24T02:38:26;9.40;;;8.50;;
4547;SDS011;2286;51.570;7.090;2023-08-24T02:41:00;10.40;;;9.50;;
4547;SDS011;2286;51.570;7.090;2023-08-24T02:43:28;9.83;;;9.13;;
4547;SDS011;2286;51.570;7.090;2023-08-24T02:45:59;10.00;;;9.00;;
4547;SDS011;2286;51.570;7.090;2023-08-24T02:48:26;10.57;;;9.50;;
4547;SDS011;2286;51.570;7.090;2023-08-24T02:50:53;10.60;;;9.50;;
4547;SDS011;2286;51.570;7.090;2023-08-24T02:53:21;9.87;;;8.97;;
4547;SDS011;2286;51.570;7.090;2023-08-24T02:55:48;10.73;;;9.37;;
4547;SDS011;2286;51.570;7.090;2023-08-24T02:58:15;11.13;;;10.13;;
4547;SDS011;2286;51.570;7.090;2023-08-24T03:00:42;11.47;;;9.90;;
4547;SDS011;2286;51.570;7.090;2023-08-24T03:03:09;11.27;;;10.10;;
4547;SDS011;2286;51.570;7.090;2023-08-24T03:05:36;12.60;;;10.00;;
4547;SDS011;2286;51.570;7.090;2023-08-24T03:08:03;11.17;;;10.07;;
4547;SDS011;2286;51.570;7.090;2023-08-24T03:10:31;10.67;;;9.60;;
4547;SDS011;2286;51.570;7.090;2023-08-24T03:13:01;10.77;;;9.93;;
4547;SDS011;2286;51.570;7.090;2023-08-24T03:15:29;13.00;;;10.97;;
4547;SDS011;2286;51.570;7.090;2023-08-24T03:17:56;10.97;;;10.03;;
4547;SDS011;2286;51.570;7.090;2023-08-24T03:20:23;10.87;;;10.07;;
4547;SDS011;2286;51.570;7.090;2023-08-24T03:22:50;12.03;;;11.00;;
4547;SDS011;2286;51.570;7.090;2023-08-24T03:25:16;12.43;;;11.37;;
4547;SDS011;2286;51.570;7.090;2023-08-24T03:27:45;11.60;;;10.60;;
4547;SDS011;2286;51.570;7.090;2023-08-24T03:30:12;12.70;;;11.60;;
4547;SDS011;2286;51.570;7.090;2023-08-24T03:32:40;12.30;;;11.00;;
4547;SDS011;2286;51.570;7.090;2023-08-24T03:35:07;11.83;;;10.83;;
4547;SDS011;2286;51.570;7.090;2023-08-24T03:37:34;12.63;;;11.43;;
4547;SDS011;2286;51.570;7.090;2023-08-24T03:40:01;11.67;;;10.57;;
4547;SDS011;2286;51.570;7.090;2023-08-24T03:42:29;12.50;;;11.30;;
4547;SDS011;2286;51.570;7.090;2023-08-24T03:44:57;11.70;;;10.50;;
4547;SDS011;2286;51.570;7.090;2023-08-24T03:47:25;12.20;;;11.20;;
4547;SDS011;2286;51.570;7.090;2023-08-24T03:49:52;15.33;;;11.57;;
4547;SDS011;2286;51.570;7.090;2023-08-24T03:52:20;12.43;;;11.40;;
4547;SDS011;2286;51.570;7.090;2023-08-24T03:54:47;12.43;;;11.23;;
4547;SDS011;2286;51.570;7.090;2023-08-24T03:57:14;14.03;;;11.57;;
4547;SDS011;2286;51.570;7.090;2023-08-24T03:59:41;16.43;;;12.03;;
4547;SDS011;2286;51.570;7.090;2023-08-24T04:02:09;12.10;;;11.17;;
4547;SDS011;2286;51.570;7.090;2023-08-24T04:04:36;11.33;;;10.27;;
4547;SDS011;2286;51.570;7.090;2023-08-24T04:07:03;12.30;;;11.27;;
4547;SDS011;2286;51.570;7.090;2023-08-24T04:09:30;11.00;;;10.10;;
4547;SDS011;2286;51.570;7.090;2023-08-24T04:11:57;11.83;;;10.83;;
4547;SDS011;2286;51.570;7.090;2023-08-24T04:14:24;13.50;;;12.20;;
4547;SDS011;2286;51.570;7.090;2023-08-24T04:16:51;12.17;;;11.07;;
4547;SDS011;2286;51.570;7.090;2023-08-24T04:19:19;12.90;;;11.63;;
4547;SDS011;2286;51.570;7.090;2023-08-24T04:21:46;14.10;;;12.67;;
4547;SDS011;2286;51.570;7.090;2023-08-24T04:24:13;12.40;;;11.13;;
4547;SDS011;2286;51.570;7.090;2023-08-24T04:26:40;13.60;;;12.10;;
4547;SDS011;2286;51.570;7.090;2023-08-24T04:29:07;14.17;;;12.90;;
4547;SDS011;2286;51.570;7.090;2023-08-24T04:31:34;13.90;;;12.50;;
4547;SDS011;2286;51.570;7.090;2023-08-24T04:34:02;14.10;;;12.80;;
4547;SDS011;2286;51.570;7.090;2023-08-24T04:36:31;13.70;;;12.60;;
4547;SDS011;2286;51.570;7.090;2023-08-24T04:38:58;14.53;;;13.07;;
4547;SDS011;2286;51.570;7.090;2023-08-24T04:41:25;14.70;;;13.50;;
4547;SDS011;2286;51.570;7.090;2023-08-24T04:43:53;15.43;;;13.80;;
4547;SDS011;2286;51.570;7.090;2023-08-24T04:46:21;16.50;;;14.67;;
4547;SDS011;2286;51.570;7.090;2023-08-24T04:48:48;15.27;;;14.17;;
4547;SDS011;2286;51.570;7.090;2023-08-24T04:51:14;17.30;;;15.90;;
4547;SDS011;2286;51.570;7.090;2023-08-24T04:53:43;17.40;;;15.70;;
4547;SDS011;2286;51.570;7.090;2023-08-24T04:56:10;16.57;;;15.07;;
4547;SDS011;2286;51.570;7.090;2023-08-24T04:58:37;17.30;;;15.80;;
4547;SDS011;2286;51.570;7.090;2023-08-24T05:01:04;18.87;;;17.00;;
4547;SDS011;2286;51.570;7.090;2023-08-24T05:03:31;18.60;;;17.00;;
4547;SDS011;2286;51.570;7.090;2023-08-24T05:05:58;18.50;;;16.70;;
4547;SDS011;2286;51.570;7.090;2023-08-24T05:08:25;17.87;;;16.00;;
4547;SDS011;2286;51.570;7.090;2023-08-24T05:10:53;16.77;;;15.37;;
4547;SDS011;2286;51.570;7.090;2023-08-24T05:13:20;18.20;;;16.40;;
4547;SDS011;2286;51.570;7.090;2023-08-24T05:15:47;18.30;;;16.50;;
4547;SDS011;2286;51.570;7.090;2023-08-24T05:18:14;20.87;;;16.30;;
4547;SDS011;2286;51.570;7.090;2023-08-24T05:20:41;17.40;;;15.80;;
4547;SDS011;2286;51.570;7.090;2023-08-24T05:23:08;17.97;;;16.10;;
4547;SDS011;2286;51.570;7.090;2023-08-24T05:25:35;16.53;;;14.90;;
4547;SDS011;2286;51.570;7.090;2023-08-24T05:28:03;17.83;;;16.17;;
4547;SDS011;2286;51.570;7.090;2023-08-24T05:30:31;15.80;;;14.50;;
4547;SDS011;2286;51.570;7.090;2023-08-24T05:32:58;15.90;;;14.67;;
4547;SDS011;2286;51.570;7.090;2023-08-24T05:35:25;17.70;;;16.10;;
4547;SDS011;2286;51.570;7.090;2023-08-24T05:37:52;17.00;;;15.70;;
4547;SDS011;2286;51.570;7.090;2023-08-24T05:40:19;17.20;;;15.50;;
4547;SDS011;2286;51.570;7.090;2023-08-24T05:42:46;16.17;;;14.80;;
4547;SDS011;2286;51.570;7.090;2023-08-24T05:45:14;15.30;;;13.83;;
4547;SDS011;2286;51.570;7.090;2023-08-24T05:47:41;16.30;;;14.97;;
4547;SDS011;2286;51.570;7.090;2023-08-24T05:50:08;15.50;;;13.97;;
4547;SDS011;2286;51.570;7.090;2023-08-24T05:52:36;16.40;;;14.50;;
4547;SDS011;2286;51.570;7.090;2023-08-24T05:55:03;15.30;;;13.90;;
4547;SDS011;2286;51.570;7.090;2023-08-24T05:57:31;19.83;;;13.73;;
4547;SDS011;2286;51.570;7.090;2023-08-24T05:59:58;14.83;;;13.63;;
4547;SDS011;2286;51.570;7.090;2023-08-24T06:02:26;15.00;;;13.73;;
4547;SDS011;2286;51.570;7.090;2023-08-24T06:04:53;16.70;;;15.10;;
4547;SDS011;2286;51.570;7.090;2023-08-24T06:07:20;16.10;;;14.50;;
4547;SDS011;2286;51.570;7.090;2023-08-24T06:09:47;17.00;;;15.30;;
4547;SDS011;2286;51.570;7.090;2023-08-24T06:12:14;16.43;;;14.87;;
4547;SDS011;2286;51.570;7.090;2023-08-24T06:14:41;17.43;;;15.20;;
4547;SDS011;2286;51.570;7.090;2023-08-24T06:17:08;15.37;;;14.03;;
4547;SDS011;2286;51.570;7.090;2023-08-24T06:19:36;15.87;;;13.60;;
4547;SDS011;2286;51.570;7.090;2023-08-24T06:22:03;15.77;;;14.47;;
4547;SDS011;2286;51.570;7.090;2023-08-24T06:24:30;14.83;;;13.53;;
4547;SDS011;2286;51.570;7.090;2023-08-24T06:26:57;15.07;;;13.67;;
4547;SDS011;2286;51.570;7.090;2023-08-24T06:29:24;16.43;;;14.87;;
4547;SDS011;2286;51.570;7.090;2023-08-24T06:31:53;16.23;;;14.83;;
4547;SDS011;2286;51.570;7.090;2023-08-24T06:34:20;15.17;;;13.73;;
4547;SDS011;2286;51.570;7.090;2023-08-24T06:36:49;15.40;;;13.93;;
4547;SDS011;2286;51.570;7.090;2023-08-24T06:39:17;13.50;;;12.40;;
4547;SDS011;2286;51.570;7.090;2023-08-24T06:41:44;12.87;;;11.57;;
4547;SDS011;2286;51.570;7.090;2023-08-24T06:44:12;12.03;;;10.90;;
4547;SDS011;2286;51.570;7.090;2023-08-24T06:46:38;12.13;;;11.03;;
4547;SDS011;2286;51.570;7.090;2023-08-24T06:49:05;11.63;;;10.43;;
4547;SDS011;2286;51.570;7.090;2023-08-24T06:51:32;10.80;;;9.70;;
4547;SDS011;2286;51.570;7.090;2023-08-24T06:54:00;10.80;;;9.90;;
4547;SDS011;2286;51.570;7.090;2023-08-24T06:56:28;11.57;;;10.40;;
4547;SDS011;2286;51.570;7.090;2023-08-24T06:58:55;12.00;;;10.10;;
4547;SDS011;2286;51.570;7.090;2023-08-24T07:01:21;12.67;;;10.00;;
4547;SDS011;2286;51.570;7.090;2023-08-24T07:03:50;13.57;;;10.00;;
4547;SDS011;2286;51.570;7.090;2023-08-24T07:06:17;10.77;;;9.37;;
4547;SDS011;2286;51.570;7.090;2023-08-24T07:08:44;10.50;;;9.60;;
4547;SDS011;2286;51.570;7.090;2023-08-24T07:11:13;11.03;;;10.03;;
4547;SDS011;2286;51.570;7.090;2023-08-24T07:13:40;12.23;;;9.30;;
4547;SDS011;2286;51.570;7.090;2023-08-24T07:16:07;10.83;;;9.67;;
4547;SDS011;2286;51.570;7.090;2023-08-24T07:18:33;12.10;;;9.63;;
4547;SDS011;2286;51.570;7.090;2023-08-24T07:21:00;10.97;;;9.90;;
4547;SDS011;2286;51.570;7.090;2023-08-24T07:23:27;9.67;;;8.80;;
4547;SDS011;2286;51.570;7.090;2023-08-24T07:25:54;10.47;;;9.33;;
4547;SDS011;2286;51.570;7.090;2023-08-24T07:28:22;11.67;;;9.50;;
4547;SDS011;2286;51.570;7.090;2023-08-24T07:30:50;10.83;;;9.40;;
4547;SDS011;2286;51.570;7.090;2023-08-24T07:33:20;10.47;;;9.47;;
4547;SDS011;2286;51.570;7.090;2023-08-24T07:35:47;11.83;;;8.20;;
4547;SDS011;2286;51.570;7.090;2023-08-24T07:38:14;13.57;;;9.53;;
4547;SDS011;2286;51.570;7.090;2023-08-24T07:40:41;9.97;;;8.93;;
4547;SDS011;2286;51.570;7.090;2023-08-24T07:43:08;9.57;;;8.67;;
4547;SDS011;2286;51.570;7.090;2023-08-24T07:45:36;10.20;;;8.20;;
4547;SDS011;2286;51.570;7.090;2023-08-24T07:48:03;9.50;;;8.60;;
4547;SDS011;2286;51.570;7.090;2023-08-24T07:50:31;8.93;;;8.10;;
4547;SDS011;2286;51.570;7.090;2023-08-24T07:52:58;10.90;;;8.57;;
4547;SDS011;2286;51.570;7.090;2023-08-24T07:55:25;9.60;;;7.57;;
4547;SDS011;2286;51.570;7.090;2023-08-24T07:57:52;10.90;;;7.00;;
4547;SDS011;2286;51.570;7.090;2023-08-24T08:00:19;8.80;;;7.90;;
4547;SDS011;2286;51.570;7.090;2023-08-24T08:02:47;7.87;;;7.17;;
4547;SDS011;2286;51.570;7.090;2023-08-24T08:05:16;8.63;;;7.00;;
4547;SDS011;2286;51.570;7.090;2023-08-24T08:07:43;8.67;;;6.93;;
4547;SDS011;2286;51.570;7.090;2023-08-24T08:10:10;9.67;;;7.23;;
4547;SDS011;2286;51.570;7.090;2023-08-24T08:12:37;8.03;;;6.50;;
4547;SDS011;2286;51.570;7.090;2023-08-24T08:15:04;7.50;;;6.80;;
4547;SDS011;2286;51.570;7.090;2023-08-24T08:17:32;9.20;;;5.70;;
4547;SDS011;2286;51.570;7.090;2023-08-24T08:20:00;8.27;;;6.63;;
4547;SDS011;2286;51.570;7.090;2023-08-24T08:22:28;9.90;;;6.20;;
4547;SDS011;2286;51.570;7.090;2023-08-24T08:25:00;7.90;;;6.77;;
4547;SDS011;2286;51.570;7.090;2023-08-24T08:27:27;9.23;;;5.70;;
4547;SDS011;2286;51.570;7.090;2023-08-24T08:29:54;7.03;;;5.30;;
4547;SDS011;2286;51.570;7.090;2023-08-24T08:32:21;10.23;;;5.40;;
4547;SDS011;2286;51.570;7.090;2023-08-24T08:34:52;6.90;;;5.17;;
4547;SDS011;2286;51.570;7.090;2023-08-24T08:37:20;6.00;;;4.07;;
4547;SDS011;2286;51.570;7.090;2023-08-24T08:39:47;6.97;;;5.67;;
4547;SDS011;2286;51.570;7.090;2023-08-24T08:42:14;8.60;;;5.33;;
4547;SDS011;2286;51.570;7.090;2023-08-24T08:44:41;4.80;;;4.17;;
4547;SDS011;2286;51.570;7.090;2023-08-24T08:47:11;7.47;;;4.17;;
4547;SDS011;2286;51.570;7.090;2023-08-24T08:49:39;8.70;;;4.70;;
4547;SDS011;2286;51.570;7.090;2023-08-24T08:52:09;9.60;;;4.67;;
4547;SDS011;2286;51.570;7.090;2023-08-24T08:54:38;5.17;;;3.83;;
4547;SDS011;2286;51.570;7.090;2023-08-24T08:57:06;5.63;;;4.50;;
4547;SDS011;2286;51.570;7.090;2023-08-24T08:59:32;6.23;;;4.50;;
4547;SDS011;2286;51.570;7.090;2023-08-24T09:02:00;9.60;;;4.23;;
4547;SDS011;2286;51.570;7.090;2023-08-24T09:04:28;4.67;;;4.10;;
4547;SDS011;2286;51.570;7.090;2023-08-24T09:06:56;6.73;;;4.50;;
4547;SDS011;2286;51.570;7.090;2023-08-24T09:09:23;6.83;;;3.97;;
4547;SDS011;2286;51.570;7.090;2023-08-24T09:11:52;6.60;;;5.20;;
4547;SDS011;2286;51.570;7.090;2023-08-24T09:14:19;8.27;;;4.60;;
4547;SDS011;2286;51.570;7.090;2023-08-24T09:16:46;5.30;;;4.10;;
4547;SDS011;2286;51.570;7.090;2023-08-24T09:19:13;9.03;;;4.10;;
4547;SDS011;2286;51.570;7.090;2023-08-24T09:21:40;8.30;;;4.10;;
4547;SDS011;2286;51.570;7.090;2023-08-24T09:24:07;6.23;;;4.43;;
4547;SDS011;2286;51.570;7.090;2023-08-24T09:26:35;6.83;;;3.83;;
4547;SDS011;2286;51.570;7.090;2023-08-24T09:29:12;5.00;;;4.50;;
4547;SDS011;2286;51.570;7.090;2023-08-24T09:31:40;9.20;;;4.30;;
4547;SDS011;2286;51.570;7.090;2023-08-24T09:34:09;5.00;;;3.87;;
4547;SDS011;2286;51.570;7.090;2023-08-24T09:36:36;5.87;;;4.30;;
4547;SDS011;2286;51.570;7.090;2023-08-24T09:39:04;8.87;;;3.63;;
4547;SDS011;2286;51.570;7.090;2023-08-24T09:41:41;6.57;;;3.50;;
4547;SDS011;2286;51.570;7.090;2023-08-24T09:44:10;5.20;;;3.77;;
4547;SDS011;2286;51.570;7.090;2023-08-24T09:46:38;6.53;;;4.50;;
4547;SDS011;2286;51.570;7.090;2023-08-24T09:49:06;13.30;;;3.80;;
4547;SDS011;2286;51.570;7.090;2023-08-24T09:51:36;7.30;;;4.40;;
4547;SDS011;2286;51.570;7.090;2023-08-24T09:54:04;7.47;;;4.17;;
4547;SDS011;2286;51.570;7.090;2023-08-24T09:56:35;5.90;;;4.90;;
4547;SDS011;2286;51.570;7.090;2023-08-24T09:59:05;4.50;;;4.10;;
4547;SDS011;2286;51.570;7.090;2023-08-24T10:01:40;14.40;;;4.70;;
4547;SDS011;2286;51.570;7.090;2023-08-24T10:04:09;5.80;;;4.07;;
4547;SDS011;2286;51.570;7.090;2023-08-24T10:06:37;10.13;;;4.93;;
4547;SDS011;2286;51.570;7.090;2023-08-24T10:09:06;5.57;;;4.77;;
4547;SDS011;2286;51.570;7.090;2023-08-24T10:11:39;4.70;;;4.33;;
4547;SDS011;2286;51.570;7.090;2023-08-24T10:14:12;4.93;;;4.43;;
4547;SDS011;2286;51.570;7.090;2023-08-24T10:16:42;4.97;;;4.13;;
4547;SDS011;2286;51.570;7.090;2023-08-24T10:19:10;6.43;;;4.90;;
4547;SDS011;2286;51.570;7.090;2023-08-24T10:21:38;4.57;;;4.17;;
4547;SDS011;2286;51.570;7.090;2023-08-24T10:24:05;5.57;;;3.83;;
4547;SDS011;2286;51.570;7.090;2023-08-24T10:26:34;5.77;;;3.83;;
4547;SDS011;2286;51.570;7.090;2023-08-24T10:29:03;5.50;;;4.77;;
4547;SDS011;2286;51.570;7.090;2023-08-24T10:31:33;7.10;;;4.30;;
4547;SDS011;2286;51.570;7.090;2023-08-24T10:34:01;4.53;;;4.13;;
4547;SDS011;2286;51.570;7.090;2023-08-24T10:36:31;5.13;;;4.40;;
4547;SDS011;2286;51.570;7.090;2023-08-24T10:39:01;6.90;;;3.90;;
4547;SDS011;2286;51.570;7.090;2023-08-24T10:41:36;5.77;;;4.37;;
4547;SDS011;2286;51.570;7.090;2023-08-24T10:44:19;7.40;;;3.90;;
4547;SDS011;2286;51.570;7.090;2023-08-24T10:49:33;6.87;;;4.80;;
4547;SDS011;2286;51.570;7.090;2023-08-24T10:54:46;4.30;;;3.90;;
4547;SDS011;2286;51.570;7.090;2023-08-24T10:57:17;5.33;;;3.90;;
4547;SDS011;2286;51.570;7.090;2023-08-24T10:59:45;6.27;;;3.90;;
4547;SDS011;2286;51.570;7.090;2023-08-24T11:02:24;4.03;;;3.63;;
4547;SDS011;2286;51.570;7.090;2023-08-24T11:05:04;5.20;;;3.67;;
4547;SDS011;2286;51.570;7.090;2023-08-24T11:07:31;7.93;;;4.27;;
4547;SDS011;2286;51.570;7.090;2023-08-24T11:09:58;5.93;;;3.77;;
4547;SDS011;2286;51.570;7.090;2023-08-24T11:12:25;4.57;;;3.30;;
4547;SDS011;2286;51.570;7.090;2023-08-24T11:14:53;4.50;;;4.07;;
4547;SDS011;2286;51.570;7.090;2023-08-24T11:17:25;8.40;;;4.10;;
4547;SDS011;2286;51.570;7.090;2023-08-24T11:19:57;5.63;;;4.00;;
4547;SDS011;2286;51.570;7.090;2023-08-24T11:22:24;7.10;;;3.67;;
4547;SDS011;2286;51.570;7.090;2023-08-24T11:24:52;4.63;;;3.33;;
4547;SDS011;2286;51.570;7.090;2023-08-24T11:27:20;3.80;;;3.50;;
4547;SDS011;2286;51.570;7.090;2023-08-24T11:29:47;8.30;;;4.13;;
4547;SDS011;2286;51.570;7.090;2023-08-24T11:32:25;4.23;;;3.87;;
4547;SDS011;2286;51.570;7.090;2023-08-24T11:34:52;6.80;;;3.93;;
4547;SDS011;2286;51.570;7.090;2023-08-24T11:37:20;3.63;;;3.33;;
4547;SDS011;2286;51.570;7.090;2023-08-24T11:39:47;4.43;;;3.23;;
4547;SDS011;2286;51.570;7.090;2023-08-24T11:42:14;4.77;;;3.50;;
4547;SDS011;2286;51.570;7.090;2023-08-24T11:44:44;4.60;;;3.40;;
4547;SDS011;2286;51.570;7.090;2023-08-24T11:47:12;5.20;;;3.60;;
4547;SDS011;2286;51.570;7.090;2023-08-24T11:49:40;12.33;;;3.97;;
4547;SDS011;2286;51.570;7.090;2023-08-24T11:52:08;6.07;;;4.13;;
4547;SDS011;2286;51.570;7.090;2023-08-24T11:54:35;9.43;;;4.60;;
4547;SDS011;2286;51.570;7.090;2023-08-24T11:57:05;4.67;;;3.40;;
4547;SDS011;2286;51.570;7.090;2023-08-24T11:59:33;3.87;;;3.40;;
4547;SDS011;2286;51.570;7.090;2023-08-24T12:02:01;3.40;;;3.10;;
4547;SDS011;2286;51.570;7.090;2023-08-24T12:04:37;3.77;;;3.10;;
4547;SDS011;2286;51.570;7.090;2023-08-24T12:07:09;3.37;;;2.93;;
4547;SDS011;2286;51.570;7.090;2023-08-24T12:09:37;3.80;;;3.23;;
4547;SDS011;2286;51.570;7.090;2023-08-24T12:12:04;3.40;;;2.30;;
4547;SDS011;2286;51.570;7.090;2023-08-24T12:14:39;3.70;;;2.70;;
4547;SDS011;2286;51.570;7.090;2023-08-24T12:17:06;7.00;;;2.90;;
4547;SDS011;2286;51.570;7.090;2023-08-24T12:19:33;6.47;;;2.90;;
4547;SDS011;2286;51.570;7.090;2023-08-24T12:22:00;7.30;;;3.10;;
4547;SDS011;2286;51.570;7.090;2023-08-24T12:24:30;3.20;;;2.83;;
4547;SDS011;2286;51.570;7.090;2023-08-24T12:26:57;3.97;;;3.07;;
4547;SDS011;2286;51.570;7.090;2023-08-24T12:29:24;5.03;;;2.90;;
4547;SDS011;2286;51.570;7.090;2023-08-24T12:31:51;4.70;;;3.33;;
4547;SDS011;2286;51.570;7.090;2023-08-24T12:34:23;3.93;;;3.53;;
4547;SDS011;2286;51.570;7.090;2023-08-24T12:36:50;6.80;;;3.73;;
4547;SDS011;2286;51.570;7.090;2023-08-24T12:39:17;4.43;;;3.20;;
4547;SDS011;2286;51.570;7.090;2023-08-24T12:41:46;3.80;;;3.00;;
4547;SDS011;2286;51.570;7.090;2023-08-24T12:44:13;13.23;;;3.80;;
4547;SDS011;2286;51.570;7.090;2023-08-24T12:46:40;4.00;;;3.10;;
4547;SDS011;2286;51.570;7.090;2023-08-24T12:49:07;5.30;;;3.27;;
4547;SDS011;2286;51.570;7.090;2023-08-24T12:51:34;4.03;;;3.20;;
4547;SDS011;2286;51.570;7.090;2023-08-24T12:54:00;5.30;;;3.60;;
4547;SDS011;2286;51.570;7.090;2023-08-24T12:56:27;7.20;;;2.70;;
4547;SDS011;2286;51.570;7.090;2023-08-24T12:58:55;4.30;;;3.27;;
4547;SDS011;2286;51.570;7.090;2023-08-24T13:01:22;4.30;;;3.63;;
4547;SDS011;2286;51.570;7.090;2023-08-24T13:03:49;3.23;;;2.93;;
4547;SDS011;2286;51.570;7.090;2023-08-24T13:06:16;4.67;;;4.10;;
4547;SDS011;2286;51.570;7.090;2023-08-24T13:08:43;5.50;;;3.77;;
4547;SDS011;2286;51.570;7.090;2023-08-24T13:11:10;7.23;;;4.30;;
4547;SDS011;2286;51.570;7.090;2023-08-24T13:13:37;3.77;;;3.47;;
4547;SDS011;2286;51.570;7.090;2023-08-24T13:16:05;5.07;;;4.23;;
4547;SDS011;2286;51.570;7.090;2023-08-24T13:18:32;5.20;;;3.80;;
4547;SDS011;2286;51.570;7.090;2023-08-24T13:20:59;4.90;;;3.40;;
4547;SDS011;2286;51.570;7.090;2023-08-24T13:23:26;7.07;;;3.90;;
4547;SDS011;2286;51.570;7.090;2023-08-24T13:25:53;4.10;;;3.60;;
4547;SDS011;2286;51.570;7.090;2023-08-24T13:28:21;7.67;;;3.53;;
4547;SDS011;2286;51.570;7.090;2023-08-24T13:30:48;6.73;;;3.30;;
4547;SDS011;2286;51.570;7.090;2023-08-24T13:33:16;3.77;;;3.43;;
4547;SDS011;2286;51.570;7.090;2023-08-24T13:35:43;3.33;;;2.97;;
4547;SDS011;2286;51.570;7.090;2023-08-24T13:38:10;7.10;;;3.87;;
4547;SDS011;2286;51.570;7.090;2023-08-24T13:40:37;3.90;;;3.50;;
4547;SDS011;2286;51.570;7.090;2023-08-24T13:43:04;3.83;;;3.53;;
4547;SDS011;2286;51.570;7.090;2023-08-24T13:45:31;6.00;;;3.73;;
4547;SDS011;2286;51.570;7.090;2023-08-24T13:47:59;6.50;;;3.80;;
4547;SDS011;2286;51.570;7.090;2023-08-24T13:50:28;6.40;;;4.00;;
4547;SDS011;2286;51.570;7.090;2023-08-24T13:52:55;4.17;;;3.67;;
4547;SDS011;2286;51.570;7.090;2023-08-24T13:55:22;5.73;;;3.10;;
4547;SDS011;2286;51.570;7.090;2023-08-24T13:57:49;5.80;;;2.93;;
4547;SDS011;2286;51.570;7.090;2023-08-24T14:00:16;7.27;;;4.40;;
4547;SDS011;2286;51.570;7.090;2023-08-24T14:02:44;5.50;;;3.37;;
4547;SDS011;2286;51.570;7.090;2023-08-24T14:05:13;3.83;;;3.27;;
4547;SDS011;2286;51.570;7.090;2023-08-24T14:07:41;4.07;;;3.77;;
4547;SDS011;2286;51.570;7.090;2023-08-24T14:10:08;4.30;;;3.37;;
4547;SDS011;2286;51.570;7.090;2023-08-24T14:12:35;4.77;;;3.20;;
4547;SDS011;2286;51.570;7.090;2023-08-24T14:15:02;5.23;;;3.20;;
4547;SDS011;2286;51.570;7.090;2023-08-24T14:17:31;12.33;;;3.70;;
4547;SDS011;2286;51.570;7.090;2023-08-24T14:19:58;8.17;;;4.10;;
4547;SDS011;2286;51.570;7.090;2023-08-24T14:22:25;5.03;;;3.60;;
4547;SDS011;2286;51.570;7.090;2023-08-24T14:24:53;5.40;;;3.20;;
4547;SDS011;2286;51.570;7.090;2023-08-24T14:27:20;5.20;;;3.20;;
4547;SDS011;2286;51.570;7.090;2023-08-24T14:29:47;5.67;;;3.77;;
4547;SDS011;2286;51.570;7.090;2023-08-24T14:32:13;13.23;;;3.73;;
4547;SDS011;2286;51.570;7.090;2023-08-24T14:34:41;5.10;;;3.80;;
4547;SDS011;2286;51.570;7.090;2023-08-24T14:37:08;5.83;;;3.37;;
4547;SDS011;2286;51.570;7.090;2023-08-24T14:39:35;5.47;;;3.73;;
4547;SDS011;2286;51.570;7.090;2023-08-24T14:42:03;7.50;;;4.47;;
4547;SDS011;2286;51.570;7.090;2023-08-24T14:44:30;5.17;;;4.10;;
4547;SDS011;2286;51.570;7.090;2023-08-24T14:46:57;6.40;;;3.93;;
4547;SDS011;2286;51.570;7.090;2023-08-24T14:49:24;7.40;;;4.87;;
4547;SDS011;2286;51.570;7.090;2023-08-24T14:51:51;6.67;;;3.83;;
4547;SDS011;2286;51.570;7.090;2023-08-24T14:54:18;5.73;;;4.00;;
4547;SDS011;2286;51.570;7.090;2023-08-24T14:56:44;8.57;;;4.03;;
4547;SDS011;2286;51.570;7.090;2023-08-24T14:59:13;5.47;;;3.80;;
4547;SDS011;2286;51.570;7.090;2023-08-24T15:01:40;4.90;;;3.67;;
4547;SDS011;2286;51.570;7.090;2023-08-24T15:04:06;11.17;;;4.50;;
4547;SDS011;2286;51.570;7.090;2023-08-24T15:06:33;8.20;;;3.50;;
4547;SDS011;2286;51.570;7.090;2023-08-24T15:09:00;8.93;;;4.17;;
4547;SDS011;2286;51.570;7.090;2023-08-24T15:11:28;5.93;;;4.03;;
4547;SDS011;2286;51.570;7.090;2023-08-24T15:13:55;5.57;;;4.10;;
4547;SDS011;2286;51.570;7.090;2023-08-24T15:16:24;8.00;;;3.30;;
4547;SDS011;2286;51.570;7.090;2023-08-24T15:18:50;7.83;;;3.90;;